sensor_id;sensor_type;location;lat;lon;timestamp;P1;durP1;ratioP1;P2;durP2;ratioP2
63693;SDS011;49839;51.798;10.954;2023-03-14T17:15:02;9.75;;;1.52;;
63693;SDS011;49839;51.798;10.954;2023-03-14T17:17:30;9.70;;;1.70;;
63693;SDS011;49839;51.798;10.954;2023-03-14T17:19:57;10.43;;;1.35;;
63693;SDS011;49839;51.798;10.954;2023-03-14T17:22:26;14.32;;;1.92;;
63693;SDS011;49839;51.798;10.954;2023-03-14T17:24:58;12.68;;;1.48;;
63693;SDS011;49839;51.798;10.954;2023-03-14T17:27:26;8.00;;;1.60;;
63693;SDS011;49839;51.798;10.954;2023-03-14T17:29:54;8.20;;;1.40;;
63693;SDS011;49839;51.798;10.954;2023-03-14T17:32:23;11.35;;;2.05;;
63693;SDS011;49839;51.798;10.954;2023-03-14T17:34:51;5.10;;;1.65;;
63693;SDS011;49839;51.798;10.954;2023-03-14T17:37:20;13.40;;;2.08;;
63693;SDS011;49839;51.798;10.954;2023-03-14T17:39:48;12.93;;;1.63;;
63693;SDS011;49839;51.798;10.954;2023-03-14T17:42:15;9.63;;;2.30;;
63693;SDS011;49839;51.798;10.954;2023-03-14T17:44:46;8.77;;;1.33;;
63693;SDS011;49839;51.798;10.954;2023-03-14T17:47:15;15.77;;;2.88;;
63693;SDS011;49839;51.798;10.954;2023-03-14T17:49:44;10.88;;;1.90;;
63693;SDS011;49839;51.798;10.954;2023-03-14T17:52:12;10.60;;;1.52;;
63693;SDS011;49839;51.798;10.954;2023-03-14T17:54:39;10.70;;;2.00;;
63693;SDS011;49839;51.798;10.954;2023-03-14T17:57:07;7.13;;;1.40;;
63693;SDS011;49839;51.798;10.954;2023-03-14T17:59:37;15.07;;;2.58;;
63693;SDS011;49839;51.798;10.954;2023-03-14T18:02:05;7.55;;;1.45;;
63693;SDS011;49839;51.798;10.954;2023-03-14T18:04:33;10.75;;;1.50;;
63693;SDS011;49839;51.798;10.954;2023-03-14T18:07:02;10.02;;;1.40;;
63693;SDS011;49839;51.798;10.954;2023-03-14T18:09:30;11.82;;;1.40;;
63693;SDS011;49839;51.798;10.954;2023-03-14T18:11:58;8.35;;;1.35;;
63693;SDS011;49839;51.798;10.954;2023-03-14T18:14:34;5.05;;;1.15;;
63693;SDS011;49839;51.798;10.954;2023-03-14T18:17:04;2.75;;;0.52;;
63693;SDS011;49839;51.798;10.954;2023-03-14T18:19:31;5.07;;;0.85;;
63693;SDS011;49839;51.798;10.954;2023-03-14T18:21:59;10.57;;;1.48;;
63693;SDS011;49839;51.798;10.954;2023-03-14T18:24:27;8.02;;;1.45;;
63693;SDS011;49839;51.798;10.954;2023-03-14T18:26:55;7.03;;;1.15;;
63693;SDS011;49839;51.798;10.954;2023-03-14T18:29:22;9.13;;;1.77;;
63693;SDS011;49839;51.798;10.954;2023-03-14T18:31:50;13.82;;;1.58;;
63693;SDS011;49839;51.798;10.954;2023-03-14T18:34:17;7.03;;;1.15;;
63693;SDS011;49839;51.798;10.954;2023-03-14T18:39:15;11.43;;;1.75;;
63693;SDS011;49839;51.798;10.954;2023-03-14T18:41:43;10.10;;;1.55;;
63693;SDS011;49839;51.798;10.954;2023-03-14T18:44:11;7.65;;;1.83;;
63693;SDS011;49839;51.798;10.954;2023-03-14T18:46:38;6.15;;;1.30;;
63693;SDS011;49839;51.798;10.954;2023-03-14T18:49:07;9.05;;;1.52;;
63693;SDS011;49839;51.798;10.954;2023-03-14T18:51:35;12.18;;;1.20;;
63693;SDS011;49839;51.798;10.954;2023-03-14T18:54:02;12.25;;;2.88;;
63693;SDS011;49839;51.798;10.954;2023-03-14T18:56:36;15.23;;;4.82;;
63693;SDS011;49839;51.798;10.954;2023-03-14T18:59:05;13.75;;;4.57;;
63693;SDS011;49839;51.798;10.954;2023-03-14T19:01:32;12.40;;;4.40;;
63693;SDS011;49839;51.798;10.954;2023-03-14T19:04:00;14.73;;;4.53;;
63693;SDS011;49839;51.798;10.954;2023-03-14T19:06:28;8.15;;;1.70;;
63693;SDS011;49839;51.798;10.954;2023-03-14T19:08:57;13.68;;;1.83;;
63693;SDS011;49839;51.798;10.954;2023-03-14T19:11:24;7.90;;;1.70;;
63693;SDS011;49839;51.798;10.954;2023-03-14T19:13:52;7.88;;;1.40;;
63693;SDS011;49839;51.798;10.954;2023-03-14T19:16:21;5.43;;;1.05;;
63693;SDS011;49839;51.798;10.954;2023-03-14T19:21:24;4.97;;;1.15;;
63693;SDS011;49839;51.798;10.954;2023-03-14T19:23:52;7.55;;;1.45;;
63693;SDS011;49839;51.798;10.954;2023-03-14T19:26:19;11.82;;;1.63;;
63693;SDS011;49839;51.798;10.954;2023-03-14T19:28:47;9.75;;;1.52;;
63693;SDS011;49839;51.798;10.954;2023-03-14T19:31:18;12.70;;;2.10;;
63693;SDS011;49839;51.798;10.954;2023-03-14T19:33:47;13.45;;;1.40;;
63693;SDS011;49839;51.798;10.954;2023-03-14T19:36:19;10.70;;;1.70;;
63693;SDS011;49839;51.798;10.954;2023-03-14T19:38:47;9.48;;;1.40;;
63693;SDS011;49839;51.798;10.954;2023-03-14T19:41:14;6.70;;;1.40;;
63693;SDS011;49839;51.798;10.954;2023-03-14T19:43:42;7.90;;;1.17;;
63693;SDS011;49839;51.798;10.954;2023-03-14T19:46:10;10.45;;;1.55;;
63693;SDS011;49839;51.798;10.954;2023-03-14T19:48:37;5.40;;;1.40;;
63693;SDS011;49839;51.798;10.954;2023-03-14T19:51:06;9.55;;;2.08;;
63693;SDS011;49839;51.798;10.954;2023-03-14T19:53:35;3.75;;;1.40;;
63693;SDS011;49839;51.798;10.954;2023-03-14T19:56:02;9.93;;;1.70;;
63693;SDS011;49839;51.798;10.954;2023-03-14T19:58:33;6.97;;;1.10;;
63693;SDS011;49839;51.798;10.954;2023-03-14T20:01:01;7.78;;;1.73;;
63693;SDS011;49839;51.798;10.954;2023-03-14T20:03:28;8.48;;;1.60;;
63693;SDS011;49839;51.798;10.954;2023-03-14T20:05:56;6.53;;;1.42;;
63693;SDS011;49839;51.798;10.954;2023-03-14T20:08:25;5.88;;;1.05;;
63693;SDS011;49839;51.798;10.954;2023-03-14T20:10:52;6.30;;;1.25;;
63693;SDS011;49839;51.798;10.954;2023-03-14T20:13:20;7.85;;;0.95;;
63693;SDS011;49839;51.798;10.954;2023-03-14T20:15:48;6.80;;;0.80;;
63693;SDS011;49839;51.798;10.954;2023-03-14T20:18:15;4.07;;;0.88;;
63693;SDS011;49839;51.798;10.954;2023-03-14T20:20:43;7.07;;;1.17;;
63693;SDS011;49839;51.798;10.954;2023-03-14T20:23:10;6.50;;;0.82;;
63693;SDS011;49839;51.798;10.954;2023-03-14T20:25:41;4.50;;;0.70;;
63693;SDS011;49839;51.798;10.954;2023-03-14T20:28:10;14.98;;;1.38;;
63693;SDS011;49839;51.798;10.954;2023-03-14T20:30:38;5.85;;;1.23;;
63693;SDS011;49839;51.798;10.954;2023-03-14T20:33:05;8.13;;;0.95;;
63693;SDS011;49839;51.798;10.954;2023-03-14T20:35:33;10.20;;;1.48;;
63693;SDS011;49839;51.798;10.954;2023-03-14T20:38:03;6.63;;;1.45;;
63693;SDS011;49839;51.798;10.954;2023-03-14T20:40:30;14.52;;;1.85;;
63693;SDS011;49839;51.798;10.954;2023-03-14T20:43:00;8.60;;;1.60;;
63693;SDS011;49839;51.798;10.954;2023-03-14T20:45:27;9.70;;;1.88;;
63693;SDS011;49839;51.798;10.954;2023-03-14T20:47:55;5.72;;;1.33;;
63693;SDS011;49839;51.798;10.954;2023-03-14T20:50:22;7.22;;;1.85;;
63693;SDS011;49839;51.798;10.954;2023-03-14T20:52:50;5.95;;;1.55;;
63693;SDS011;49839;51.798;10.954;2023-03-14T20:55:17;9.70;;;1.67;;
63693;SDS011;49839;51.798;10.954;2023-03-14T20:57:44;6.57;;;0.93;;
63693;SDS011;49839;51.798;10.954;2023-03-14T21:00:14;6.43;;;1.10;;
63693;SDS011;49839;51.798;10.954;2023-03-14T21:02:41;7.68;;;1.08;;
63693;SDS011;49839;51.798;10.954;2023-03-14T21:05:09;6.40;;;1.30;;
63693;SDS011;49839;51.798;10.954;2023-03-14T21:07:38;9.98;;;1.48;;
63693;SDS011;49839;51.798;10.954;2023-03-14T21:10:09;7.15;;;0.77;;
63693;SDS011;49839;51.798;10.954;2023-03-14T21:12:39;7.03;;;1.52;;
63693;SDS011;49839;51.798;10.954;2023-03-14T21:15:07;7.13;;;1.38;;
63693;SDS011;49839;51.798;10.954;2023-03-14T21:17:36;14.75;;;2.53;;
63693;SDS011;49839;51.798;10.954;2023-03-14T21:20:05;6.88;;;1.35;;
63693;SDS011;49839;51.798;10.954;2023-03-14T21:22:34;3.25;;;0.65;;
63693;SDS011;49839;51.798;10.954;2023-03-14T21:25:01;9.68;;;2.10;;
63693;SDS011;49839;51.798;10.954;2023-03-14T21:27:28;12.18;;;2.38;;
63693;SDS011;49839;51.798;10.954;2023-03-14T21:29:56;6.63;;;1.45;;
63693;SDS011;49839;51.798;10.954;2023-03-14T21:32:24;9.85;;;3.42;;
63693;SDS011;49839;51.798;10.954;2023-03-14T21:34:53;15.38;;;3.25;;
63693;SDS011;49839;51.798;10.954;2023-03-14T21:37:21;6.40;;;1.40;;
63693;SDS011;49839;51.798;10.954;2023-03-14T21:39:52;8.88;;;1.52;;
63693;SDS011;49839;51.798;10.954;2023-03-14T21:42:20;6.18;;;1.40;;
63693;SDS011;49839;51.798;10.954;2023-03-14T21:44:50;7.78;;;1.05;;
63693;SDS011;49839;51.798;10.954;2023-03-14T21:47:18;4.13;;;1.00;;
63693;SDS011;49839;51.798;10.954;2023-03-14T21:49:48;5.97;;;0.93;;
63693;SDS011;49839;51.798;10.954;2023-03-14T21:52:17;8.15;;;1.33;;
63693;SDS011;49839;51.798;10.954;2023-03-14T21:54:45;4.47;;;0.70;;
63693;SDS011;49839;51.798;10.954;2023-03-14T21:57:13;5.50;;;1.27;;
63693;SDS011;49839;51.798;10.954;2023-03-14T21:59:41;11.48;;;1.38;;
63693;SDS011;49839;51.798;10.954;2023-03-14T22:02:10;4.05;;;0.85;;
63693;SDS011;49839;51.798;10.954;2023-03-14T22:04:38;9.07;;;0.80;;
63693;SDS011;49839;51.798;10.954;2023-03-14T22:07:06;7.95;;;1.08;;
63693;SDS011;49839;51.798;10.954;2023-03-14T22:09:37;5.40;;;0.93;;
63693;SDS011;49839;51.798;10.954;2023-03-14T22:12:04;11.20;;;1.33;;
63693;SDS011;49839;51.798;10.954;2023-03-14T22:14:32;7.30;;;1.10;;
63693;SDS011;49839;51.798;10.954;2023-03-14T22:16:59;8.65;;;1.05;;
63693;SDS011;49839;51.798;10.954;2023-03-14T22:19:29;6.55;;;0.82;;
63693;SDS011;49839;51.798;10.954;2023-03-14T22:21:57;6.50;;;0.90;;
63693;SDS011;49839;51.798;10.954;2023-03-14T22:24:24;6.82;;;1.02;;
63693;SDS011;49839;51.798;10.954;2023-03-14T22:26:53;7.43;;;0.90;;
63693;SDS011;49839;51.798;10.954;2023-03-14T22:29:21;9.73;;;1.40;;
63693;SDS011;49839;51.798;10.954;2023-03-14T22:31:49;8.05;;;1.20;;
63693;SDS011;49839;51.798;10.954;2023-03-14T22:34:16;8.35;;;1.27;;
63693;SDS011;49839;51.798;10.954;2023-03-14T22:36:44;6.20;;;0.82;;
63693;SDS011;49839;51.798;10.954;2023-03-14T22:39:11;7.72;;;1.20;;
63693;SDS011;49839;51.798;10.954;2023-03-14T22:41:39;7.50;;;1.10;;
63693;SDS011;49839;51.798;10.954;2023-03-14T22:44:07;6.47;;;1.05;;
63693;SDS011;49839;51.798;10.954;2023-03-14T22:46:35;11.35;;;1.30;;
63693;SDS011;49839;51.798;10.954;2023-03-14T22:49:02;10.13;;;1.38;;
63693;SDS011;49839;51.798;10.954;2023-03-14T22:51:30;5.82;;;0.85;;
63693;SDS011;49839;51.798;10.954;2023-03-14T22:53:57;9.93;;;1.55;;
63693;SDS011;49839;51.798;10.954;2023-03-14T22:56:24;9.75;;;0.93;;
63693;SDS011;49839;51.798;10.954;2023-03-14T22:58:52;8.70;;;0.90;;
63693;SDS011;49839;51.798;10.954;2023-03-14T23:01:20;7.22;;;1.10;;
63693;SDS011;49839;51.798;10.954;2023-03-14T23:03:48;4.70;;;0.90;;
63693;SDS011;49839;51.798;10.954;2023-03-14T23:06:15;8.00;;;1.02;;
63693;SDS011;49839;51.798;10.954;2023-03-14T23:08:43;3.55;;;0.85;;
63693;SDS011;49839;51.798;10.954;2023-03-14T23:11:10;9.30;;;1.10;;
63693;SDS011;49839;51.798;10.954;2023-03-14T23:13:39;11.60;;;1.63;;
63693;SDS011;49839;51.798;10.954;2023-03-14T23:16:08;8.80;;;1.30;;
63693;SDS011;49839;51.798;10.954;2023-03-14T23:18:39;9.02;;;1.67;;
63693;SDS011;49839;51.798;10.954;2023-03-14T23:21:07;8.48;;;1.13;;
63693;SDS011;49839;51.798;10.954;2023-03-14T23:23:35;4.65;;;1.05;;
63693;SDS011;49839;51.798;10.954;2023-03-14T23:26:03;8.35;;;1.17;;
63693;SDS011;49839;51.798;10.954;2023-03-14T23:28:31;4.90;;;1.10;;
63693;SDS011;49839;51.798;10.954;2023-03-14T23:30:58;8.35;;;0.90;;
63693;SDS011;49839;51.798;10.954;2023-03-14T23:33:26;5.00;;;0.90;;
63693;SDS011;49839;51.798;10.954;2023-03-14T23:35:55;6.78;;;0.70;;
63693;SDS011;49839;51.798;10.954;2023-03-14T23:38:23;8.10;;;0.93;;
63693;SDS011;49839;51.798;10.954;2023-03-14T23:40:51;5.90;;;1.00;;
63693;SDS011;49839;51.798;10.954;2023-03-14T23:43:19;5.82;;;0.88;;
63693;SDS011;49839;51.798;10.954;2023-03-14T23:45:47;2.90;;;0.60;;
63693;SDS011;49839;51.798;10.954;2023-03-14T23:48:14;10.07;;;1.13;;
63693;SDS011;49839;51.798;10.954;2023-03-14T23:50:42;4.63;;;0.73;;
63693;SDS011;49839;51.798;10.954;2023-03-14T23:53:10;8.43;;;0.93;;
63693;SDS011;49839;51.798;10.954;2023-03-14T23:55:38;3.85;;;0.75;;
63693;SDS011;49839;51.798;10.954;2023-03-14T23:58:05;6.55;;;0.85;;
